sensor_id;sensor_type;location;lat;lon;timestamp;pressure;altitude;pressure_sealevel;temperature;humidity
31681;BME280;18281;51.364;9.566;2023-05-10T00:01:01;99109.38;;;14.66;94.88
31681;BME280;18281;51.364;9.566;2023-05-10T00:03:28;99105.31;;;14.62;94.83
31681;BME280;18281;51.364;9.566;2023-05-10T00:05:53;99112.53;;;14.59;96.01
31681;BME280;18281;51.364;9.566;2023-05-10T00:08:18;99099.34;;;14.59;95.57
31681;BME280;18281;51.364;9.566;2023-05-10T00:10:44;99099.59;;;14.56;97.50
31681;BME280;18281;51.364;9.566;2023-05-10T00:13:10;99099.88;;;14.53;94.44
31681;BME280;18281;51.364;9.566;2023-05-10T00:15:36;99099.88;;;14.53;97.64
31681;BME280;18281;51.364;9.566;2023-05-10T00:18:01;99099.03;;;14.53;98.38
31681;BME280;18281;51.364;9.566;2023-05-10T00:20:26;99099.88;;;14.53;99.33
31681;BME280;18281;51.364;9.566;2023-05-10T00:22:52;99095.44;;;14.54;99.08
31681;BME280;18281;51.364;9.566;2023-05-10T00:25:17;99088.75;;;14.50;100.00
31681;BME280;18281;51.364;9.566;2023-05-10T00:27:43;99092.47;;;14.47;100.00
31681;BME280;18281;51.364;9.566;2023-05-10T00:30:08;99088.31;;;14.45;100.00
31681;BME280;18281;51.364;9.566;2023-05-10T00:32:34;99086.38;;;14.47;100.00
31681;BME280;18281;51.364;9.566;2023-05-10T00:34:59;99081.34;;;14.43;100.00
31681;BME280;18281;51.364;9.566;2023-05-10T00:37:24;99086.06;;;14.40;100.00
31681;BME280;18281;51.364;9.566;2023-05-10T00:39:50;99086.75;;;14.42;100.00
31681;BME280;18281;51.364;9.566;2023-05-10T00:42:15;99082.03;;;14.36;100.00
31681;BME280;18281;51.364;9.566;2023-05-10T00:44:41;99079.38;;;14.36;100.00
31681;BME280;18281;51.364;9.566;2023-05-10T00:47:06;99080.34;;;14.35;100.00
31681;BME280;18281;51.364;9.566;2023-05-10T00:49:32;99083.25;;;14.32;100.00
31681;BME280;18281;51.364;9.566;2023-05-10T00:51:58;99076.16;;;14.32;100.00
31681;BME280;18281;51.364;9.566;2023-05-10T00:54:23;99082.81;;;14.26;100.00
31681;BME280;18281;51.364;9.566;2023-05-10T00:56:49;99078.38;;;14.27;100.00
31681;BME280;18281;51.364;9.566;2023-05-10T00:59:17;99075.84;;;14.25;100.00
31681;BME280;18281;51.364;9.566;2023-05-10T01:01:44;99071.22;;;14.18;100.00
31681;BME280;18281;51.364;9.566;2023-05-10T01:04:11;99079.16;;;14.18;100.00
31681;BME280;18281;51.364;9.566;2023-05-10T01:06:38;99077.59;;;14.15;100.00
31681;BME280;18281;51.364;9.566;2023-05-10T01:09:04;99077.38;;;14.18;100.00
31681;BME280;18281;51.364;9.566;2023-05-10T01:11:29;99078.31;;;14.17;100.00
31681;BME280;18281;51.364;9.566;2023-05-10T01:13:56;99073.31;;;14.14;100.00
31681;BME280;18281;51.364;9.566;2023-05-10T01:16:23;99072.75;;;14.11;100.00
31681;BME280;18281;51.364;9.566;2023-05-10T01:18:51;99075.38;;;14.11;100.00
31681;BME280;18281;51.364;9.566;2023-05-10T01:21:38;99074.94;;;14.05;100.00
31681;BME280;18281;51.364;9.566;2023-05-10T01:24:32;99070.75;;;14.03;100.00
31681;BME280;18281;51.364;9.566;2023-05-10T01:27:17;99069.34;;;13.99;100.00
31681;BME280;18281;51.364;9.566;2023-05-10T01:32:36;99071.72;;;14.02;100.00
31681;BME280;18281;51.364;9.566;2023-05-10T01:35:19;99077.38;;;13.97;100.00
31681;BME280;18281;51.364;9.566;2023-05-10T01:38:02;99082.09;;;13.93;100.00
31681;BME280;18281;51.364;9.566;2023-05-10T01:40:35;99071.31;;;13.85;100.00
31681;BME280;18281;51.364;9.566;2023-05-10T01:43:03;99073.47;;;13.91;100.00
31681;BME280;18281;51.364;9.566;2023-05-10T01:45:35;99068.88;;;13.93;100.00
31681;BME280;18281;51.364;9.566;2023-05-10T01:48:08;99071.78;;;13.90;100.00
31681;BME280;18281;51.364;9.566;2023-05-10T01:50:37;99071.19;;;13.87;100.00
31681;BME280;18281;51.364;9.566;2023-05-10T01:53:07;99073.00;;;13.86;100.00
31681;BME280;18281;51.364;9.566;2023-05-10T01:55:36;99072.28;;;13.84;100.00
31681;BME280;18281;51.364;9.566;2023-05-10T01:58:13;99077.31;;;13.87;100.00
31681;BME280;18281;51.364;9.566;2023-05-10T02:00:46;99076.34;;;13.88;100.00
31681;BME280;18281;51.364;9.566;2023-05-10T02:03:13;99073.13;;;13.85;100.00
31681;BME280;18281;51.364;9.566;2023-05-10T02:05:41;99075.19;;;13.81;100.00
31681;BME280;18281;51.364;9.566;2023-05-10T02:08:09;99075.31;;;13.80;100.00
31681;BME280;18281;51.364;9.566;2023-05-10T02:10:35;99075.69;;;13.75;100.00
31681;BME280;18281;51.364;9.566;2023-05-10T02:13:02;99077.38;;;13.76;100.00
31681;BME280;18281;51.364;9.566;2023-05-10T02:15:28;99076.91;;;13.71;100.00
31681;BME280;18281;51.364;9.566;2023-05-10T02:17:56;99075.22;;;13.70;100.00
31681;BME280;18281;51.364;9.566;2023-05-10T02:20:23;99081.94;;;13.74;100.00
31681;BME280;18281;51.364;9.566;2023-05-10T02:22:50;99079.53;;;13.71;100.00
31681;BME280;18281;51.364;9.566;2023-05-10T02:25:18;99077.88;;;13.70;100.00
31681;BME280;18281;51.364;9.566;2023-05-10T02:27:44;99084.38;;;13.66;100.00
31681;BME280;18281;51.364;9.566;2023-05-10T02:30:11;99083.53;;;13.65;100.00
31681;BME280;18281;51.364;9.566;2023-05-10T02:32:37;99088.09;;;13.63;100.00
31681;BME280;18281;51.364;9.566;2023-05-10T02:35:03;99082.81;;;13.63;100.00
31681;BME280;18281;51.364;9.566;2023-05-10T02:37:30;99083.66;;;13.64;100.00
31681;BME280;18281;51.364;9.566;2023-05-10T02:39:56;99081.28;;;13.61;100.00
31681;BME280;18281;51.364;9.566;2023-05-10T02:42:25;99080.56;;;13.58;100.00
31681;BME280;18281;51.364;9.566;2023-05-10T02:44:52;99083.09;;;13.60;100.00
31681;BME280;18281;51.364;9.566;2023-05-10T02:47:19;99083.94;;;13.61;100.00
31681;BME280;18281;51.364;9.566;2023-05-10T02:49:45;99086.81;;;13.57;100.00
31681;BME280;18281;51.364;9.566;2023-05-10T02:52:12;99081.78;;;13.54;100.00
31681;BME280;18281;51.364;9.566;2023-05-10T02:54:44;99089.25;;;13.49;100.00
31681;BME280;18281;51.364;9.566;2023-05-10T02:57:15;99082.06;;;13.51;100.00
31681;BME280;18281;51.364;9.566;2023-05-10T02:59:41;99080.66;;;13.47;100.00
31681;BME280;18281;51.364;9.566;2023-05-10T03:02:09;99078.69;;;13.49;100.00
31681;BME280;18281;51.364;9.566;2023-05-10T03:04:35;99083.97;;;13.49;100.00
31681;BME280;18281;51.364;9.566;2023-05-10T03:07:01;99088.97;;;13.52;100.00
31681;BME280;18281;51.364;9.566;2023-05-10T03:09:27;99083.16;;;13.49;100.00
31681;BME280;18281;51.364;9.566;2023-05-10T03:12:02;99085.91;;;13.47;100.00
31681;BME280;18281;51.364;9.566;2023-05-10T03:15:00;99086.16;;;13.44;100.00
31681;BME280;18281;51.364;9.566;2023-05-10T03:17:42;99086.28;;;13.42;100.00
31681;BME280;18281;51.364;9.566;2023-05-10T03:20:19;99085.44;;;13.42;100.00
31681;BME280;18281;51.364;9.566;2023-05-10T03:22:53;99082.81;;;13.42;100.00
31681;BME280;18281;51.364;9.566;2023-05-10T03:25:19;99086.41;;;13.41;100.00
31681;BME280;18281;51.364;9.566;2023-05-10T03:27:46;99098.03;;;13.38;100.00
31681;BME280;18281;51.364;9.566;2023-05-10T03:30:13;99095.28;;;13.40;100.00
31681;BME280;18281;51.364;9.566;2023-05-10T03:32:38;99098.88;;;13.39;100.00
31681;BME280;18281;51.364;9.566;2023-05-10T03:35:08;99098.66;;;13.31;100.00
31681;BME280;18281;51.364;9.566;2023-05-10T03:37:34;99099.13;;;13.36;100.00
31681;BME280;18281;51.364;9.566;2023-05-10T03:40:00;99102.50;;;13.38;100.00
31681;BME280;18281;51.364;9.566;2023-05-10T03:42:25;99108.00;;;13.35;100.00
31681;BME280;18281;51.364;9.566;2023-05-10T03:44:50;99112.44;;;13.34;100.00
31681;BME280;18281;51.364;9.566;2023-05-10T03:47:16;99113.25;;;13.35;100.00
31681;BME280;18281;51.364;9.566;2023-05-10T03:49:41;99115.22;;;13.33;100.00
31681;BME280;18281;51.364;9.566;2023-05-10T03:52:06;99113.25;;;13.35;100.00
31681;BME280;18281;51.364;9.566;2023-05-10T03:54:32;99114.13;;;13.35;100.00
31681;BME280;18281;51.364;9.566;2023-05-10T03:56:57;99120.59;;;13.31;100.00
31681;BME280;18281;51.364;9.566;2023-05-10T03:59:23;99129.59;;;13.29;100.00
31681;BME280;18281;51.364;9.566;2023-05-10T04:01:48;99136.09;;;13.24;100.00
31681;BME280;18281;51.364;9.566;2023-05-10T04:04:13;99134.53;;;13.22;100.00
31681;BME280;18281;51.364;9.566;2023-05-10T04:06:39;99130.91;;;13.23;100.00
31681;BME280;18281;51.364;9.566;2023-05-10T04:09:04;99135.09;;;13.25;100.00
31681;BME280;18281;51.364;9.566;2023-05-10T04:11:29;99141.09;;;13.16;100.00
31681;BME280;18281;51.364;9.566;2023-05-10T04:13:55;99132.97;;;13.19;100.00
31681;BME280;18281;51.364;9.566;2023-05-10T04:16:20;99134.19;;;13.15;100.00
31681;BME280;18281;51.364;9.566;2023-05-10T04:18:45;99137.53;;;13.17;100.00
31681;BME280;18281;51.364;9.566;2023-05-10T04:21:12;99146.38;;;13.16;100.00
31681;BME280;18281;51.364;9.566;2023-05-10T04:23:38;99148.06;;;13.17;100.00
31681;BME280;18281;51.364;9.566;2023-05-10T04:26:04;99150.00;;;13.15;100.00
31681;BME280;18281;51.364;9.566;2023-05-10T04:28:29;99146.38;;;13.16;100.00
31681;BME280;18281;51.364;9.566;2023-05-10T04:31:08;99153.59;;;13.14;100.00
31681;BME280;18281;51.364;9.566;2023-05-10T04:33:34;99149.41;;;13.12;100.00
31681;BME280;18281;51.364;9.566;2023-05-10T04:36:00;99151.22;;;13.11;100.00
31681;BME280;18281;51.364;9.566;2023-05-10T04:38:27;99157.31;;;13.12;100.00
31681;BME280;18281;51.364;9.566;2023-05-10T04:40:53;99160.88;;;13.11;100.00
31681;BME280;18281;51.364;9.566;2023-05-10T04:43:19;99170.13;;;13.05;100.00
31681;BME280;18281;51.364;9.566;2023-05-10T04:45:44;99170.13;;;13.05;100.00
31681;BME280;18281;51.364;9.566;2023-05-10T04:48:10;99169.41;;;13.03;100.00
31681;BME280;18281;51.364;9.566;2023-05-10T04:50:35;99172.03;;;13.03;100.00
31681;BME280;18281;51.364;9.566;2023-05-10T04:53:00;99176.84;;;12.98;100.00
31681;BME280;18281;51.364;9.566;2023-05-10T04:55:26;99171.13;;;12.92;100.00
31681;BME280;18281;51.364;9.566;2023-05-10T04:57:52;99177.31;;;12.91;100.00
31681;BME280;18281;51.364;9.566;2023-05-10T05:00:18;99181.00;;;12.89;100.00
31681;BME280;18281;51.364;9.566;2023-05-10T05:02:44;99181.66;;;12.92;100.00
31681;BME280;18281;51.364;9.566;2023-05-10T05:05:12;99188.78;;;12.90;100.00
31681;BME280;18281;51.364;9.566;2023-05-10T05:07:38;99187.09;;;12.89;100.00
31681;BME280;18281;51.364;9.566;2023-05-10T05:10:07;99188.44;;;12.84;100.00
31681;BME280;18281;51.364;9.566;2023-05-10T05:12:33;99189.16;;;12.86;100.00
31681;BME280;18281;51.364;9.566;2023-05-10T05:14:59;99189.28;;;12.84;100.00
31681;BME280;18281;51.364;9.566;2023-05-10T05:17:24;99191.06;;;12.84;100.00
31681;BME280;18281;51.364;9.566;2023-05-10T05:19:49;99199.56;;;12.87;100.00
31681;BME280;18281;51.364;9.566;2023-05-10T05:22:15;99204.84;;;12.87;100.00
31681;BME280;18281;51.364;9.566;2023-05-10T05:24:40;99204.97;;;12.86;100.00
31681;BME280;18281;51.364;9.566;2023-05-10T05:27:06;99201.47;;;12.85;100.00
31681;BME280;18281;51.364;9.566;2023-05-10T05:29:31;99211.06;;;12.86;100.00
31681;BME280;18281;51.364;9.566;2023-05-10T05:31:56;99207.00;;;12.82;100.00
31681;BME280;18281;51.364;9.566;2023-05-10T05:34:22;99218.34;;;12.83;100.00
31681;BME280;18281;51.364;9.566;2023-05-10T05:36:48;99215.72;;;12.83;100.00
31681;BME280;18281;51.364;9.566;2023-05-10T05:39:13;99219.34;;;12.82;100.00
31681;BME280;18281;51.364;9.566;2023-05-10T05:41:39;99220.19;;;13.28;100.00
31681;BME280;18281;51.364;9.566;2023-05-10T05:44:04;99220.81;;;13.64;100.00
31681;BME280;18281;51.364;9.566;2023-05-10T05:46:29;99223.38;;;13.86;100.00
31681;BME280;18281;51.364;9.566;2023-05-10T05:48:55;99224.19;;;13.98;100.00
31681;BME280;18281;51.364;9.566;2023-05-10T05:51:20;99232.19;;;14.08;100.00
31681;BME280;18281;51.364;9.566;2023-05-10T05:53:46;99235.03;;;14.16;100.00
31681;BME280;18281;51.364;9.566;2023-05-10T05:56:11;99232.00;;;14.21;100.00
31681;BME280;18281;51.364;9.566;2023-05-10T05:58:36;99235.66;;;14.30;100.00
31681;BME280;18281;51.364;9.566;2023-05-10T06:01:02;99237.34;;;14.31;100.00
31681;BME280;18281;51.364;9.566;2023-05-10T06:03:27;99254.25;;;14.07;100.00
31681;BME280;18281;51.364;9.566;2023-05-10T06:05:52;99258.41;;;13.88;100.00
31681;BME280;18281;51.364;9.566;2023-05-10T06:08:18;99263.47;;;13.69;100.00
31681;BME280;18281;51.364;9.566;2023-05-10T06:10:43;99273.56;;;13.52;100.00
31681;BME280;18281;51.364;9.566;2023-05-10T06:13:09;99274.19;;;13.45;100.00
31681;BME280;18281;51.364;9.566;2023-05-10T06:15:35;99267.16;;;13.77;100.00
31681;BME280;18281;51.364;9.566;2023-05-10T06:18:00;99273.88;;;13.93;100.00
31681;BME280;18281;51.364;9.566;2023-05-10T06:20:25;99268.94;;;14.00;100.00
31681;BME280;18281;51.364;9.566;2023-05-10T06:22:51;99270.47;;;14.02;100.00
31681;BME280;18281;51.364;9.566;2023-05-10T06:25:16;99277.69;;;14.00;100.00
31681;BME280;18281;51.364;9.566;2023-05-10T06:27:43;99282.69;;;14.03;100.00
31681;BME280;18281;51.364;9.566;2023-05-10T06:30:09;99292.88;;;14.08;100.00
31681;BME280;18281;51.364;9.566;2023-05-10T06:32:34;99284.97;;;14.08;100.00
31681;BME280;18281;51.364;9.566;2023-05-10T06:35:01;99284.84;;;14.09;100.00
31681;BME280;18281;51.364;9.566;2023-05-10T06:37:26;99284.97;;;14.08;100.00
31681;BME280;18281;51.364;9.566;2023-05-10T06:39:51;99299.00;;;14.08;100.00
31681;BME280;18281;51.364;9.566;2023-05-10T06:42:17;99306.91;;;14.08;100.00
31681;BME280;18281;51.364;9.566;2023-05-10T06:44:42;99300.69;;;14.09;100.00
31681;BME280;18281;51.364;9.566;2023-05-10T06:47:08;99302.50;;;14.09;100.00
31681;BME280;18281;51.364;9.566;2023-05-10T06:49:34;99300.53;;;14.11;100.00
31681;BME280;18281;51.364;9.566;2023-05-10T06:51:59;99304.75;;;14.14;100.00
31681;BME280;18281;51.364;9.566;2023-05-10T06:54:24;99308.22;;;14.14;100.00
31681;BME280;18281;51.364;9.566;2023-05-10T06:56:50;99311.84;;;14.13;100.00
31681;BME280;18281;51.364;9.566;2023-05-10T06:59:15;99310.03;;;14.14;100.00
31681;BME280;18281;51.364;9.566;2023-05-10T07:01:42;99314.47;;;14.13;100.00
31681;BME280;18281;51.364;9.566;2023-05-10T07:04:07;99316.84;;;14.16;100.00
31681;BME280;18281;51.364;9.566;2023-05-10T07:06:32;99316.97;;;14.15;100.00
31681;BME280;18281;51.364;9.566;2023-05-10T07:08:58;99310.75;;;14.16;100.00
31681;BME280;18281;51.364;9.566;2023-05-10T07:11:24;99317.81;;;14.15;100.00
31681;BME280;18281;51.364;9.566;2023-05-10T07:13:49;99324.78;;;14.16;100.00
31681;BME280;18281;51.364;9.566;2023-05-10T07:16:15;99323.09;;;14.15;100.00
31681;BME280;18281;51.364;9.566;2023-05-10T07:18:40;99324.06;;;14.14;100.00
31681;BME280;18281;51.364;9.566;2023-05-10T07:21:05;99326.72;;;14.14;100.00
31681;BME280;18281;51.364;9.566;2023-05-10T07:23:31;99321.44;;;14.14;100.00
31681;BME280;18281;51.364;9.566;2023-05-10T07:25:56;99327.53;;;14.15;100.00
31681;BME280;18281;51.364;9.566;2023-05-10T07:28:23;99336.28;;;14.15;100.00
31681;BME280;18281;51.364;9.566;2023-05-10T07:30:49;99342.28;;;14.17;100.00
31681;BME280;18281;51.364;9.566;2023-05-10T07:33:14;99332.56;;;14.18;100.00
31681;BME280;18281;51.364;9.566;2023-05-10T07:35:40;99336.88;;;14.19;100.00
31681;BME280;18281;51.364;9.566;2023-05-10T07:38:06;99339.25;;;14.22;100.00
31681;BME280;18281;51.364;9.566;2023-05-10T07:40:31;99334.84;;;14.22;100.00
31681;BME280;18281;51.364;9.566;2023-05-10T07:42:57;99337.47;;;14.22;100.00
31681;BME280;18281;51.364;9.566;2023-05-10T07:45:23;99335.41;;;14.26;100.00
31681;BME280;18281;51.364;9.566;2023-05-10T07:47:48;99334.31;;;14.29;100.00
31681;BME280;18281;51.364;9.566;2023-05-10T07:50:14;99344.75;;;14.30;100.00
31681;BME280;18281;51.364;9.566;2023-05-10T07:52:39;99352.66;;;14.30;100.00
31681;BME280;18281;51.364;9.566;2023-05-10T07:55:05;99354.34;;;14.31;100.00
31681;BME280;18281;51.364;9.566;2023-05-10T07:57:32;99355.09;;;14.33;100.00
31681;BME280;18281;51.364;9.566;2023-05-10T07:59:57;99360.69;;;14.40;100.00
31681;BME280;18281;51.364;9.566;2023-05-10T08:02:23;99371.81;;;14.43;100.00
31681;BME280;18281;51.364;9.566;2023-05-10T08:04:48;99374.94;;;14.49;100.00
31681;BME280;18281;51.364;9.566;2023-05-10T08:07:13;99369.78;;;14.47;100.00
31681;BME280;18281;51.364;9.566;2023-05-10T08:09:39;99371.47;;;14.48;100.00
31681;BME280;18281;51.364;9.566;2023-05-10T08:12:04;99377.34;;;14.52;100.00
31681;BME280;18281;51.364;9.566;2023-05-10T08:14:30;99377.44;;;14.50;100.00
31681;BME280;18281;51.364;9.566;2023-05-10T08:16:55;99378.28;;;14.51;100.00
31681;BME280;18281;51.364;9.566;2023-05-10T08:19:21;99373.72;;;14.53;100.00
31681;BME280;18281;51.364;9.566;2023-05-10T08:21:48;99374.91;;;14.60;100.00
31681;BME280;18281;51.364;9.566;2023-05-10T08:24:13;99380.56;;;14.76;100.00
31681;BME280;18281;51.364;9.566;2023-05-10T08:26:39;99380.44;;;14.78;100.00
31681;BME280;18281;51.364;9.566;2023-05-10T08:29:04;99380.25;;;14.81;100.00
31681;BME280;18281;51.364;9.566;2023-05-10T08:31:29;99383.56;;;14.83;100.00
31681;BME280;18281;51.364;9.566;2023-05-10T08:33:55;99383.53;;;14.95;100.00
31681;BME280;18281;51.364;9.566;2023-05-10T08:36:20;99385.19;;;14.96;100.00
31681;BME280;18281;51.364;9.566;2023-05-10T08:38:50;99383.00;;;15.01;100.00
31681;BME280;18281;51.364;9.566;2023-05-10T08:41:19;99389.19;;;15.11;100.00
31681;BME280;18281;51.364;9.566;2023-05-10T08:43:46;99390.13;;;15.10;100.00
31681;BME280;18281;51.364;9.566;2023-05-10T08:46:15;99394.59;;;15.09;100.00
31681;BME280;18281;51.364;9.566;2023-05-10T08:48:43;99405.22;;;15.19;100.00
31681;BME280;18281;51.364;9.566;2023-05-10T08:51:09;99394.84;;;15.27;100.00
31681;BME280;18281;51.364;9.566;2023-05-10T08:53:38;99395.72;;;15.38;100.00
31681;BME280;18281;51.364;9.566;2023-05-10T08:56:04;99394.78;;;15.39;100.00
31681;BME280;18281;51.364;9.566;2023-05-10T08:58:29;99397.59;;;15.47;100.00
31681;BME280;18281;51.364;9.566;2023-05-10T09:00:56;99393.28;;;15.56;100.00
31681;BME280;18281;51.364;9.566;2023-05-10T09:03:22;99402.63;;;15.60;100.00
31681;BME280;18281;51.364;9.566;2023-05-10T09:05:48;99407.53;;;15.65;100.00
31681;BME280;18281;51.364;9.566;2023-05-10T09:08:14;99409.31;;;15.85;100.00
31681;BME280;18281;51.364;9.566;2023-05-10T09:10:43;99414.34;;;15.88;100.00
31681;BME280;18281;51.364;9.566;2023-05-10T09:13:10;99413.78;;;15.95;100.00
31681;BME280;18281;51.364;9.566;2023-05-10T09:15:35;99405.06;;;16.04;100.00
31681;BME280;18281;51.364;9.566;2023-05-10T09:18:01;99403.41;;;16.13;100.00
31681;BME280;18281;51.364;9.566;2023-05-10T09:20:27;99408.56;;;16.14;100.00
31681;BME280;18281;51.364;9.566;2023-05-10T09:22:52;99418.06;;;16.26;100.00
31681;BME280;18281;51.364;9.566;2023-05-10T09:25:19;99421.53;;;16.27;100.00
31681;BME280;18281;51.364;9.566;2023-05-10T09:27:45;99427.41;;;16.31;100.00
31681;BME280;18281;51.364;9.566;2023-05-10T09:30:16;99416.22;;;16.27;100.00
31681;BME280;18281;51.364;9.566;2023-05-10T09:32:44;99423.50;;;16.35;100.00
31681;BME280;18281;51.364;9.566;2023-05-10T09:35:12;99424.47;;;16.34;100.00
31681;BME280;18281;51.364;9.566;2023-05-10T09:37:44;99426.72;;;16.38;100.00
31681;BME280;18281;51.364;9.566;2023-05-10T09:40:17;99428.94;;;16.43;100.00
31681;BME280;18281;51.364;9.566;2023-05-10T09:43:08;99433.28;;;16.44;100.00
31681;BME280;18281;51.364;9.566;2023-05-10T09:45:35;99427.00;;;16.45;100.00
31681;BME280;18281;51.364;9.566;2023-05-10T09:48:01;99436.22;;;16.51;100.00
31681;BME280;18281;51.364;9.566;2023-05-10T09:50:28;99435.56;;;16.58;100.00
31681;BME280;18281;51.364;9.566;2023-05-10T09:52:59;99436.25;;;16.60;100.00
31681;BME280;18281;51.364;9.566;2023-05-10T09:55:44;99441.53;;;16.60;99.77
31681;BME280;18281;51.364;9.566;2023-05-10T09:58:11;99452.09;;;16.51;100.00
31681;BME280;18281;51.364;9.566;2023-05-10T10:00:41;99453.22;;;16.48;100.00
31681;BME280;18281;51.364;9.566;2023-05-10T10:03:15;99452.97;;;16.51;100.00
31681;BME280;18281;51.364;9.566;2023-05-10T10:05:42;99448.50;;;16.52;99.87
31681;BME280;18281;51.364;9.566;2023-05-10T10:08:09;99451.31;;;16.60;99.74
31681;BME280;18281;51.364;9.566;2023-05-10T10:10:34;99454.91;;;16.49;100.00
31681;BME280;18281;51.364;9.566;2023-05-10T10:13:01;99450.31;;;16.51;100.00
31681;BME280;18281;51.364;9.566;2023-05-10T10:15:27;99451.47;;;16.58;99.74
31681;BME280;18281;51.364;9.566;2023-05-10T10:17:52;99449.91;;;16.66;98.54
31681;BME280;18281;51.364;9.566;2023-05-10T10:20:20;99448.28;;;16.65;98.90
31681;BME280;18281;51.364;9.566;2023-05-10T10:22:47;99449.09;;;16.65;98.03
31681;BME280;18281;51.364;9.566;2023-05-10T10:25:15;99452.03;;;16.72;97.98
31681;BME280;18281;51.364;9.566;2023-05-10T10:27:48;99445.34;;;16.68;97.88
31681;BME280;18281;51.364;9.566;2023-05-10T10:30:37;99444.06;;;16.62;93.82
31681;BME280;18281;51.364;9.566;2023-05-10T10:36:02;99441.56;;;16.80;95.15
31681;BME280;18281;51.364;9.566;2023-05-10T10:41:11;99447.44;;;16.84;94.73
31681;BME280;18281;51.364;9.566;2023-05-10T10:49:23;99432.63;;;16.91;95.66
31681;BME280;18281;51.364;9.566;2023-05-10T10:54:39;99445.16;;;17.08;96.79
31681;BME280;18281;51.364;9.566;2023-05-10T10:57:14;99432.63;;;17.10;97.02
31681;BME280;18281;51.364;9.566;2023-05-10T10:59:43;99432.47;;;17.12;93.26
31681;BME280;18281;51.364;9.566;2023-05-10T11:02:34;99428.41;;;17.18;93.23
31681;BME280;18281;51.364;9.566;2023-05-10T11:05:00;99425.44;;;17.40;93.05
31681;BME280;18281;51.364;9.566;2023-05-10T11:07:56;99424.59;;;17.50;91.72
31681;BME280;18281;51.364;9.566;2023-05-10T11:10:22;99423.50;;;17.42;91.04
31681;BME280;18281;51.364;9.566;2023-05-10T11:13:08;99422.91;;;17.49;91.97
31681;BME280;18281;51.364;9.566;2023-05-10T11:15:40;99426.69;;;17.46;88.72
31681;BME280;18281;51.364;9.566;2023-05-10T11:18:20;99417.59;;;17.49;91.39
31681;BME280;18281;51.364;9.566;2023-05-10T11:21:00;99425.13;;;17.53;94.62
31681;BME280;18281;51.364;9.566;2023-05-10T11:26:07;99424.63;;;17.68;94.23
31681;BME280;18281;51.364;9.566;2023-05-10T11:28:34;99424.78;;;17.76;90.04
31681;BME280;18281;51.364;9.566;2023-05-10T11:31:00;99424.47;;;17.79;87.18
31681;BME280;18281;51.364;9.566;2023-05-10T11:33:25;99420.53;;;17.83;85.73
31681;BME280;18281;51.364;9.566;2023-05-10T11:35:50;99419.44;;;18.04;90.06
31681;BME280;18281;51.364;9.566;2023-05-10T11:38:16;99422.50;;;18.09;90.53
31681;BME280;18281;51.364;9.566;2023-05-10T11:40:41;99418.91;;;18.00;90.33
31681;BME280;18281;51.364;9.566;2023-05-10T11:43:09;99410.34;;;18.16;90.48
31681;BME280;18281;51.364;9.566;2023-05-10T11:45:35;99417.03;;;18.38;88.75
31681;BME280;18281;51.364;9.566;2023-05-10T11:48:02;99420.88;;;18.44;87.98
31681;BME280;18281;51.364;9.566;2023-05-10T11:50:28;99425.00;;;18.38;86.89
31681;BME280;18281;51.364;9.566;2023-05-10T11:52:55;99424.22;;;18.28;88.06
31681;BME280;18281;51.364;9.566;2023-05-10T11:55:20;99424.38;;;18.26;87.91
31681;BME280;18281;51.364;9.566;2023-05-10T11:57:46;99428.56;;;18.29;86.71
31681;BME280;18281;51.364;9.566;2023-05-10T12:00:14;99423.31;;;18.37;87.28
31681;BME280;18281;51.364;9.566;2023-05-10T12:02:40;99425.53;;;18.42;87.00
31681;BME280;18281;51.364;9.566;2023-05-10T12:05:06;99420.06;;;18.62;85.88
31681;BME280;18281;51.364;9.566;2023-05-10T12:07:32;99421.13;;;18.69;84.16
31681;BME280;18281;51.364;9.566;2023-05-10T12:10:07;99428.25;;;18.68;83.96
31681;BME280;18281;51.364;9.566;2023-05-10T12:12:45;99424.47;;;18.71;85.54
31681;BME280;18281;51.364;9.566;2023-05-10T12:15:22;99423.19;;;18.75;86.07
31681;BME280;18281;51.364;9.566;2023-05-10T12:17:48;99426.91;;;18.64;85.53
31681;BME280;18281;51.364;9.566;2023-05-10T12:22:41;99431.69;;;18.60;85.40
31681;BME280;18281;51.364;9.566;2023-05-10T12:25:08;99425.09;;;18.65;85.91
31681;BME280;18281;51.364;9.566;2023-05-10T12:27:33;99426.59;;;18.67;85.88
31681;BME280;18281;51.364;9.566;2023-05-10T12:29:59;99429.47;;;18.56;82.14
31681;BME280;18281;51.364;9.566;2023-05-10T12:32:37;99429.47;;;18.56;84.82
31681;BME280;18281;51.364;9.566;2023-05-10T12:35:03;99432.09;;;18.66;84.75
31681;BME280;18281;51.364;9.566;2023-05-10T12:37:29;99434.75;;;18.66;84.78
31681;BME280;18281;51.364;9.566;2023-05-10T12:39:54;99439.03;;;18.67;84.69
31681;BME280;18281;51.364;9.566;2023-05-10T12:42:19;99439.22;;;18.65;85.25
31681;BME280;18281;51.364;9.566;2023-05-10T12:44:45;99449.69;;;18.67;84.24
31681;BME280;18281;51.364;9.566;2023-05-10T12:47:11;99449.44;;;18.60;85.14
31681;BME280;18281;51.364;9.566;2023-05-10T12:49:36;99456.06;;;18.56;85.48
31681;BME280;18281;51.364;9.566;2023-05-10T12:52:01;99474.97;;;18.53;85.75
31681;BME280;18281;51.364;9.566;2023-05-10T12:54:27;99474.66;;;18.56;85.24
31681;BME280;18281;51.364;9.566;2023-05-10T12:56:52;99476.75;;;18.62;84.22
31681;BME280;18281;51.364;9.566;2023-05-10T12:59:18;99494.66;;;18.60;83.90
31681;BME280;18281;51.364;9.566;2023-05-10T13:01:43;99501.16;;;18.48;85.20
31681;BME280;18281;51.364;9.566;2023-05-10T13:04:08;99516.81;;;18.51;85.54
31681;BME280;18281;51.364;9.566;2023-05-10T13:06:34;99532.75;;;18.51;85.93
31681;BME280;18281;51.364;9.566;2023-05-10T13:09:00;99541.59;;;18.51;85.37
31681;BME280;18281;51.364;9.566;2023-05-10T13:11:25;99529.44;;;18.49;86.01
31681;BME280;18281;51.364;9.566;2023-05-10T13:13:51;99531.84;;;18.42;86.01
31681;BME280;18281;51.364;9.566;2023-05-10T13:16:16;99539.13;;;18.40;86.80